createdAt,value
2022-09-23T00:02:52.158Z,86.39
2022-09-23T00:07:57.246Z,86.41
2022-09-23T00:12:59.455Z,86.14
2022-09-23T00:18:01.130Z,86.01
2022-09-23T00:23:03.191Z,85.88
2022-09-23T00:28:04.998Z,86.39
2022-09-23T00:33:06.764Z,86.84
2022-09-23T00:38:08.404Z,87.17
2022-09-23T00:43:14.641Z,87.39
2022-09-23T00:48:20.759Z,87.34
2022-09-23T00:53:26.264Z,87.43
2022-09-23T00:58:34.290Z,87.43
2022-09-23T01:03:36.224Z,87.97
2022-09-23T01:08:39.330Z,88.05
2022-09-23T01:14:15.775Z,87.93
2022-09-23T01:19:35.930Z,87.80
2022-09-23T01:25:13.044Z,87.76
2022-09-23T01:30:33.272Z,87.61
2022-09-23T01:36:10.353Z,87.55
2022-09-23T01:41:43.552Z,87.32
2022-09-23T01:46:55.165Z,87.18
2022-09-23T01:52:07.480Z,87.08
2022-09-23T01:57:43.048Z,86.99
2022-09-23T02:02:54.237Z,86.94
2022-09-23T02:08:10.455Z,87.21
2022-09-23T02:13:40.235Z,87.25
2022-09-23T02:18:53.020Z,87.25
2022-09-23T02:24:05.870Z,87.21
2022-09-23T02:29:37.452Z,86.79
2022-09-23T02:35:17.542Z,86.62
2022-09-23T02:40:41.453Z,86.69
2022-09-23T02:45:43.651Z,86.78
2022-09-23T02:50:47.298Z,86.85
2022-09-23T02:55:49.693Z,86.76
2022-09-23T03:01:22.129Z,86.72
2022-09-23T03:06:43.893Z,86.66
2022-09-23T03:11:59.429Z,86.43
2022-09-23T03:17:15.529Z,86.55
2022-09-23T03:22:43.423Z,86.50
2022-09-23T03:27:45.498Z,86.54
2022-09-23T03:32:49.233Z,86.49
2022-09-23T03:38:08.940Z,86.45
2022-09-23T03:43:13.460Z,86.40
2022-09-23T03:48:15.144Z,86.43
2022-09-23T03:53:20.688Z,86.53
2022-09-23T03:58:22.369Z,86.57
2022-09-23T04:03:28.856Z,86.77
2022-09-23T04:08:30.643Z,86.76
2022-09-23T04:13:32.602Z,87.06
2022-09-23T04:18:35.003Z,86.89
2022-09-23T04:23:36.774Z,86.73
2022-09-23T04:28:38.959Z,86.81
2022-09-23T04:33:40.969Z,86.88
2022-09-23T04:38:48.252Z,86.88
2022-09-23T04:43:50.011Z,86.68
2022-09-23T04:48:51.790Z,86.51
2022-09-23T04:53:55.331Z,86.41
2022-09-23T04:58:57.741Z,86.47
2022-09-23T05:04:04.650Z,86.57
2022-09-23T05:09:08.469Z,86.57
2022-09-23T05:14:10.600Z,86.87
2022-09-23T05:19:13.086Z,86.88
2022-09-23T05:24:16.294Z,86.85
2022-09-23T05:29:18.082Z,86.82
2022-09-23T05:34:19.864Z,86.82
2022-09-23T05:39:21.655Z,86.76
2022-09-23T05:44:23.404Z,86.65
2022-09-23T05:49:42.653Z,86.97
2022-09-23T05:54:46.909Z,87.06
2022-09-23T05:59:48.689Z,87.14
2022-09-23T06:04:50.375Z,86.99
2022-09-23T06:09:53.566Z,86.92
2022-09-23T06:14:55.237Z,86.83
2022-09-23T06:19:57.225Z,86.86
2022-09-23T06:24:59.097Z,87.17
2022-09-23T06:30:00.894Z,87.28
2022-09-23T06:35:03.072Z,87.40
2022-09-23T06:40:06.168Z,87.43
2022-09-23T06:45:12.553Z,87.60
2022-09-23T06:50:14.422Z,87.43
2022-09-23T06:55:16.195Z,87.43
2022-09-23T07:00:18.998Z,87.61
2022-09-23T07:05:21.953Z,87.69
2022-09-23T07:10:23.779Z,87.86
2022-09-23T07:15:25.549Z,87.68
2022-09-23T07:20:27.354Z,87.75
2022-09-23T07:25:29.626Z,87.47
2022-09-23T07:30:31.818Z,87.46
2022-09-23T07:35:34.337Z,87.14
2022-09-23T07:40:38.683Z,86.86
2022-09-23T07:45:43.168Z,86.68
2022-09-23T07:50:44.939Z,85.77
2022-09-23T07:55:55.404Z,85.89
2022-09-23T08:01:09.724Z,85.96
2022-09-23T08:06:13.573Z,85.76
2022-09-23T08:11:15.407Z,84.90
2022-09-23T08:16:17.233Z,84.14
2022-09-23T08:21:22.931Z,83.42
2022-09-23T08:26:25.623Z,83.59
2022-09-23T08:31:27.337Z,83.75
2022-09-23T08:36:30.728Z,83.94
2022-09-23T08:41:58.215Z,83.50
2022-09-23T08:47:40.889Z,82.44
2022-09-23T08:53:05.055Z,82.31
2022-09-23T08:58:43.976Z,82.07
2022-09-23T09:03:56.185Z,82.39
2022-09-23T09:09:02.581Z,81.68
2022-09-23T09:14:29.780Z,81.71
2022-09-23T09:20:02.824Z,81.62
2022-09-23T09:25:40.363Z,82.75
2022-09-23T09:30:48.391Z,82.95
2022-09-23T09:36:44.745Z,81.84
2022-09-23T09:41:51.733Z,80.39
2022-09-23T09:47:46.148Z,80.08
2022-09-23T09:52:48.480Z,79.40
2022-09-23T09:58:01.117Z,78.89
2022-09-23T10:03:22.647Z,77.67
2022-09-23T10:08:36.550Z,76.05
2022-09-23T10:13:38.276Z,75.26
2022-09-23T10:18:45.677Z,74.07
2022-09-23T10:23:58.228Z,73.10
2022-09-23T10:29:22.528Z,72.48
2022-09-23T10:34:28.481Z,72.36
2022-09-23T10:39:48.543Z,71.83
2022-09-23T10:45:23.679Z,72.57
2022-09-23T10:50:48.782Z,72.78
2022-09-23T10:56:08.705Z,72.24
2022-09-23T11:01:41.761Z,71.90
2022-09-23T11:07:25.551Z,71.36
2022-09-23T11:12:53.487Z,69.68
2022-09-23T11:18:16.898Z,70.15
2022-09-23T11:23:50.505Z,66.97
2022-09-23T11:29:20.572Z,65.60
2022-09-23T11:35:03.388Z,67.54
2022-09-23T11:40:13.182Z,67.77
2022-09-23T11:45:26.499Z,69.70
2022-09-23T11:50:39.960Z,70.17
2022-09-23T11:55:58.319Z,70.01
2022-09-23T12:01:22.236Z,70.59
2022-09-23T12:06:46.622Z,70.99
2022-09-23T12:12:42.322Z,71.44
2022-09-23T12:18:10.614Z,72.13
2022-09-23T12:23:43.212Z,72.64
2022-09-23T12:28:50.349Z,73.12
2022-09-23T12:33:53.909Z,72.57
2022-09-23T12:39:40.133Z,72.02
2022-09-23T12:44:46.522Z,72.17
2022-09-23T12:49:50.434Z,71.57
2022-09-23T12:54:58.056Z,70.06
2022-09-23T13:00:12.409Z,70.16
2022-09-23T13:05:44.713Z,69.68
2022-09-23T13:10:57.867Z,68.82
2022-09-23T13:16:20.754Z,68.68
2022-09-23T13:21:45.300Z,68.68
2022-09-23T13:26:53.475Z,68.42
2022-09-23T13:31:57.394Z,67.84
2022-09-23T13:37:22.225Z,67.21
2022-09-23T13:42:29.642Z,66.53
2022-09-23T13:47:35.519Z,67.06
2022-09-23T13:52:37.461Z,65.84
2022-09-23T13:57:39.258Z,65.63
2022-09-23T14:02:46.382Z,65.58
2022-09-23T14:07:53.355Z,65.31
2022-09-23T14:12:56.949Z,65.63
2022-09-23T14:18:07.839Z,65.57
2022-09-23T14:23:16.232Z,64.36
2022-09-23T14:28:22.497Z,64.92
2022-09-23T14:33:32.968Z,64.43
2022-09-23T14:38:50.941Z,64.92
2022-09-23T14:44:00.473Z,66.24
2022-09-23T14:49:10.453Z,67.01
2022-09-23T14:54:35.118Z,67.66
2022-09-23T14:59:37.343Z,67.90
2022-09-23T15:04:39.083Z,68.39
2022-09-23T15:09:43.617Z,68.64
2022-09-23T15:14:52.269Z,68.93
2022-09-23T15:20:00.221Z,68.78
2022-09-23T15:25:31.547Z,69.14
2022-09-23T15:30:36.069Z,69.03
2022-09-23T15:35:47.186Z,70.27
2022-09-23T15:40:49.567Z,70.21
2022-09-23T15:46:04.396Z,70.22
2022-09-23T15:51:09.296Z,70.84
2022-09-23T15:56:10.982Z,71.54
2022-09-23T16:01:36.076Z,72.62
2022-09-23T16:06:39.208Z,72.89
2022-09-23T16:11:49.826Z,72.94
2022-09-23T16:16:51.595Z,73.69
2022-09-23T16:21:53.536Z,73.96
2022-09-23T16:26:59.441Z,74.89
2022-09-23T16:32:02.719Z,75.19
2022-09-23T16:37:05.223Z,75.87
2022-09-23T16:42:07.019Z,76.32
2022-09-23T16:47:09.066Z,76.43
2022-09-23T16:52:11.561Z,76.43
2022-09-23T16:57:13.436Z,76.63
2022-09-23T17:02:34.269Z,76.88
2022-09-23T17:07:36.341Z,77.20
2022-09-23T17:12:38.254Z,77.62
2022-09-23T17:17:39.990Z,77.89
2022-09-23T17:22:42.605Z,77.29
2022-09-23T17:27:44.362Z,77.60
2022-09-23T17:32:46.852Z,77.82
2022-09-23T17:37:49.548Z,78.14
2022-09-23T17:42:55.126Z,78.39
2022-09-23T17:47:56.904Z,78.92
2022-09-23T17:53:00.097Z,78.72
2022-09-23T17:58:01.878Z,79.06
2022-09-23T18:03:03.653Z,79.46
2022-09-23T18:08:06.207Z,80.06
2022-09-23T18:13:08.325Z,80.51
2022-09-23T18:18:10.302Z,80.69
2022-09-23T18:23:12.387Z,80.64
2022-09-23T18:28:14.160Z,80.63
2022-09-23T18:33:15.937Z,81.03
2022-09-23T18:38:18.734Z,80.83
2022-09-23T18:43:25.602Z,81.04
2022-09-23T18:48:49.126Z,81.25
2022-09-23T18:53:57.135Z,81.03
2022-09-23T18:58:59.011Z,80.70
2022-09-23T19:04:02.639Z,80.78
2022-09-23T19:09:06.896Z,80.28
2022-09-23T19:14:11.549Z,80.14
2022-09-23T19:19:13.898Z,80.65
2022-09-23T19:24:19.477Z,81.21
2022-09-23T19:29:22.907Z,80.94
2022-09-23T19:34:28.665Z,80.36
2022-09-23T19:39:31.450Z,80.57
2022-09-23T19:44:37.308Z,81.07
2022-09-23T19:49:39.299Z,81.15
2022-09-23T19:54:41.204Z,81.38
2022-09-23T19:59:43.352Z,81.42
2022-09-23T20:04:45.244Z,80.65
2022-09-23T20:09:47.005Z,81.40
2022-09-23T20:14:51.027Z,81.47
2022-09-23T20:19:52.911Z,81.04
2022-09-23T20:24:55.721Z,81.49
2022-09-23T20:29:59.064Z,81.76
2022-09-23T20:35:00.920Z,82.06
2022-09-23T20:40:03.796Z,82.21
2022-09-23T20:45:07.218Z,81.98
2022-09-23T20:50:10.932Z,82.07
2022-09-23T20:55:13.012Z,82.07
2022-09-23T21:00:15.521Z,82.33
2022-09-23T21:05:17.686Z,82.48
2022-09-23T21:10:22.430Z,82.27
2022-09-23T21:15:24.310Z,82.28
2022-09-23T21:20:26.392Z,82.26
2022-09-23T21:25:29.239Z,82.29
2022-09-23T21:30:31.923Z,82.48
2022-09-23T21:35:33.658Z,82.60
2022-09-23T21:40:54.099Z,82.42
2022-09-23T21:46:01.910Z,83.04
2022-09-23T21:51:11.298Z,83.12
2022-09-23T21:56:19.625Z,82.63
2022-09-23T22:01:34.625Z,82.21
2022-09-23T22:06:39.814Z,81.92
2022-09-23T22:12:01.252Z,81.97
2022-09-23T22:17:06.809Z,82.31
2022-09-23T22:22:13.967Z,82.74
2022-09-23T22:27:19.060Z,82.36
2022-09-23T22:32:39.920Z,81.83
2022-09-23T22:37:41.966Z,81.72
2022-09-23T22:42:44.769Z,82.21
2022-09-23T22:47:46.960Z,82.25
2022-09-23T22:52:49.234Z,82.22
2022-09-23T22:57:51.217Z,82.25
2022-09-23T23:02:54.233Z,82.01
2022-09-23T23:07:57.117Z,82.10
2022-09-23T23:12:58.795Z,82.27
2022-09-23T23:18:00.596Z,82.29
2022-09-23T23:23:03.167Z,82.31
2022-09-23T23:28:05.447Z,82.54
2022-09-23T23:33:07.252Z,82.71
2022-09-23T23:38:10.534Z,82.50
2022-09-23T23:43:12.306Z,82.10
2022-09-23T23:48:14.081Z,82.11
2022-09-23T23:53:15.856Z,82.47
2022-09-23T23:58:18.585Z,82.92
